createdAt,value
2023-04-16T00:02:03.880Z,5.32
2023-04-16T00:04:31.261Z,4.70
2023-04-16T00:06:58.281Z,4.18
2023-04-16T00:09:25.335Z,4.43
2023-04-16T00:11:52.209Z,4.63
2023-04-16T00:14:19.190Z,4.70
2023-04-16T00:16:46.646Z,4.88
2023-04-16T00:19:13.588Z,3.72
2023-04-16T00:21:40.546Z,4.03
2023-04-16T00:24:07.453Z,5.32
2023-04-16T00:26:34.434Z,4.32
2023-04-16T00:29:01.841Z,4.40
2023-04-16T00:31:33.634Z,3.83
2023-04-16T00:34:01.068Z,4.20
2023-04-16T00:36:28.591Z,4.20
2023-04-16T00:38:56.929Z,5.78
2023-04-16T00:41:23.876Z,3.95
2023-04-16T00:43:51.564Z,5.28
2023-04-16T00:46:21.693Z,5.28
2023-04-16T00:48:50.040Z,5.18
2023-04-16T00:51:18.646Z,8.23
2023-04-16T00:53:46.466Z,5.05
2023-04-16T00:56:13.871Z,6.72
2023-04-16T00:58:41.206Z,7.63
2023-04-16T01:01:08.319Z,6.38
2023-04-16T01:03:39.934Z,6.15
2023-04-16T01:06:07.633Z,6.72
2023-04-16T01:08:34.643Z,6.13
2023-04-16T01:11:01.926Z,6.50
2023-04-16T01:13:29.267Z,5.68
2023-04-16T01:15:56.654Z,5.97
2023-04-16T01:18:24.139Z,6.57
2023-04-16T01:20:51.501Z,6.53
2023-04-16T01:23:19.007Z,7.63
2023-04-16T01:25:47.279Z,6.45
2023-04-16T01:28:14.367Z,7.00
2023-04-16T01:30:41.586Z,5.88
2023-04-16T01:33:11.040Z,6.38
2023-04-16T01:35:38.783Z,5.95
2023-04-16T01:38:07.772Z,5.47
2023-04-16T01:40:35.749Z,6.32
2023-04-16T01:43:02.634Z,6.65
2023-04-16T01:45:31.946Z,7.03
2023-04-16T01:47:59.170Z,7.82
2023-04-16T01:50:26.386Z,6.57
2023-04-16T01:52:53.305Z,7.07
2023-04-16T01:55:20.267Z,6.30
2023-04-16T01:57:47.130Z,6.70
2023-04-16T02:00:15.502Z,7.50
2023-04-16T02:02:42.554Z,6.13
2023-04-16T02:05:09.673Z,6.47
2023-04-16T02:07:36.518Z,6.07
2023-04-16T02:10:04.774Z,5.70
2023-04-16T02:12:31.720Z,5.57
2023-04-16T02:15:00.076Z,4.78
2023-04-16T02:17:27.080Z,6.78
2023-04-16T02:19:54.065Z,6.07
2023-04-16T02:22:20.985Z,5.32
2023-04-16T02:24:47.923Z,5.78
2023-04-16T02:27:14.795Z,6.30
2023-04-16T02:29:41.707Z,6.40
2023-04-16T02:32:08.841Z,7.03
2023-04-16T02:34:35.987Z,6.72
2023-04-16T02:37:02.935Z,7.22
2023-04-16T02:39:30.001Z,6.28
2023-04-16T02:41:57.867Z,7.22
2023-04-16T02:44:24.883Z,6.43
2023-04-16T02:46:51.673Z,6.50
2023-04-16T02:49:18.532Z,6.32
2023-04-16T02:51:45.534Z,6.07
2023-04-16T02:54:12.518Z,6.07
2023-04-16T02:56:39.462Z,5.93
2023-04-16T02:59:06.324Z,4.45
2023-04-16T03:01:33.425Z,5.70
2023-04-16T03:04:00.694Z,5.00
2023-04-16T03:06:27.864Z,6.20
2023-04-16T03:08:54.978Z,4.47
2023-04-16T03:11:21.897Z,4.65
2023-04-16T03:13:48.986Z,4.82
2023-04-16T03:16:16.094Z,3.67
2023-04-16T03:18:43.024Z,4.38
2023-04-16T03:21:09.913Z,5.18
2023-04-16T03:23:37.076Z,3.72
2023-04-16T03:26:03.981Z,3.17
2023-04-16T03:28:30.954Z,4.10
2023-04-16T03:30:57.903Z,3.70
2023-04-16T03:33:24.919Z,3.95
2023-04-16T03:35:58.572Z,4.28
2023-04-16T03:38:28.627Z,4.15
2023-04-16T03:40:55.596Z,5.20
2023-04-16T03:43:22.570Z,4.82
2023-04-16T03:45:49.516Z,5.25
2023-04-16T03:48:16.746Z,4.90
2023-04-16T03:50:50.012Z,4.72
2023-04-16T03:53:17.167Z,3.83
2023-04-16T03:55:44.190Z,3.58
2023-04-16T03:58:11.127Z,3.40
2023-04-16T04:00:41.118Z,3.80
2023-04-16T04:03:08.309Z,4.53
2023-04-16T04:05:42.836Z,4.00
2023-04-16T04:08:09.848Z,4.88
2023-04-16T04:10:36.825Z,5.00
2023-04-16T04:13:05.234Z,7.07
2023-04-16T04:15:32.437Z,6.05
2023-04-16T04:17:59.675Z,5.97
2023-04-16T04:20:26.744Z,5.82
2023-04-16T04:22:53.704Z,5.97
2023-04-16T04:25:20.703Z,5.93
2023-04-16T04:27:47.722Z,5.72
2023-04-16T04:30:15.412Z,6.93
2023-04-16T04:32:42.339Z,7.35
2023-04-16T04:35:09.812Z,6.38
2023-04-16T04:37:36.849Z,7.32
2023-04-16T04:40:03.880Z,7.03
2023-04-16T04:42:30.789Z,9.65
2023-04-16T04:44:57.676Z,6.63
2023-04-16T04:47:24.736Z,6.65
2023-04-16T04:49:51.791Z,6.80
2023-04-16T04:52:20.455Z,6.80
2023-04-16T04:54:47.368Z,7.63
2023-04-16T04:57:14.320Z,6.72
2023-04-16T04:59:41.254Z,7.70
2023-04-16T05:02:08.279Z,6.28
2023-04-16T05:04:35.226Z,6.20
2023-04-16T05:07:02.597Z,7.00
2023-04-16T05:09:29.506Z,7.72
2023-04-16T05:11:57.667Z,8.68
2023-04-16T05:14:24.611Z,10.88
2023-04-16T05:16:51.546Z,8.57
2023-04-16T05:19:18.462Z,6.85
2023-04-16T05:21:45.272Z,7.60
2023-04-16T05:24:14.340Z,6.28
2023-04-16T05:26:41.964Z,8.93
2023-04-16T05:29:08.974Z,7.65
2023-04-16T05:31:36.050Z,8.32
2023-04-16T05:34:02.922Z,7.80
2023-04-16T05:36:29.852Z,7.07
2023-04-16T05:38:57.048Z,7.15
2023-04-16T05:41:24.108Z,9.93
2023-04-16T05:43:50.959Z,7.15
2023-04-16T05:46:17.900Z,6.50
2023-04-16T05:48:44.986Z,6.70
2023-04-16T05:51:11.972Z,7.00
2023-04-16T05:53:38.969Z,6.35
2023-04-16T05:56:06.613Z,6.68
2023-04-16T05:58:33.793Z,6.60
2023-04-16T06:01:01.562Z,6.25
2023-04-16T06:03:28.549Z,7.85
2023-04-16T06:05:55.949Z,9.13
2023-04-16T06:08:22.909Z,9.48
2023-04-16T06:10:49.998Z,15.25
2023-04-16T06:13:16.919Z,12.63
2023-04-16T06:15:43.819Z,13.90
2023-04-16T06:18:10.783Z,14.10
2023-04-16T06:20:37.859Z,14.93
2023-04-16T06:23:04.816Z,16.70
2023-04-16T06:25:31.721Z,16.75
2023-04-16T06:27:58.586Z,15.98
2023-04-16T06:30:25.567Z,19.42
2023-04-16T06:32:53.042Z,19.60
2023-04-16T06:35:20.368Z,21.83
2023-04-16T06:37:47.432Z,22.67
2023-04-16T06:40:14.299Z,24.63
2023-04-16T06:42:42.365Z,24.67
2023-04-16T06:45:14.959Z,23.27
2023-04-16T06:47:41.891Z,21.55
2023-04-16T06:50:09.089Z,21.48
2023-04-16T06:52:36.084Z,23.80
2023-04-16T06:55:03.072Z,21.33
2023-04-16T06:57:30.028Z,22.23
2023-04-16T06:59:57.089Z,20.48
2023-04-16T07:02:24.560Z,20.20
2023-04-16T07:04:52.461Z,21.60
2023-04-16T07:07:19.417Z,23.73
2023-04-16T07:09:46.305Z,21.67
2023-04-16T07:12:13.501Z,21.15
2023-04-16T07:14:40.550Z,22.33
2023-04-16T07:17:07.383Z,24.85
2023-04-16T07:19:34.452Z,24.13
2023-04-16T07:22:01.560Z,21.42
2023-04-16T07:24:28.495Z,25.58
2023-04-16T07:26:55.585Z,26.02
2023-04-16T07:29:22.549Z,25.42
2023-04-16T07:31:49.589Z,29.23
2023-04-16T07:34:16.786Z,28.13
2023-04-16T07:36:43.711Z,28.13
2023-04-16T07:39:11.625Z,32.38
2023-04-16T07:41:40.653Z,32.40
2023-04-16T07:44:08.100Z,29.90
2023-04-16T07:46:43.560Z,29.52
2023-04-16T07:49:15.145Z,30.17
2023-04-16T07:51:45.141Z,31.23
2023-04-16T07:54:12.597Z,30.30
2023-04-16T07:56:39.629Z,31.13
2023-04-16T07:59:21.078Z,30.02
2023-04-16T08:01:49.920Z,29.17
2023-04-16T08:04:23.021Z,30.52
2023-04-16T08:06:53.120Z,30.65
2023-04-16T08:09:21.750Z,26.75
2023-04-16T08:11:49.904Z,30.15
2023-04-16T08:14:17.725Z,26.13
2023-04-16T08:16:44.968Z,28.92
2023-04-16T08:19:12.040Z,24.73
2023-04-16T08:21:39.348Z,27.58
2023-04-16T08:24:06.608Z,27.00
2023-04-16T08:26:33.554Z,25.23
2023-04-16T08:29:00.518Z,26.15
2023-04-16T08:31:27.489Z,25.92
2023-04-16T08:33:54.651Z,25.52
2023-04-16T08:36:21.818Z,27.33
2023-04-16T08:38:48.774Z,25.15
2023-04-16T08:41:16.230Z,28.83
2023-04-16T08:43:45.654Z,27.75
2023-04-16T08:46:12.948Z,30.75
2023-04-16T08:48:43.310Z,28.02
2023-04-16T08:51:12.095Z,27.42
2023-04-16T08:53:59.453Z,24.70
2023-04-16T08:56:27.205Z,24.15
2023-04-16T08:58:55.260Z,29.25
2023-04-16T09:01:22.890Z,25.65
2023-04-16T09:03:50.203Z,24.58
2023-04-16T09:06:18.271Z,25.42
2023-04-16T09:08:46.297Z,28.88
2023-04-16T09:11:19.682Z,24.55
2023-04-16T09:13:47.246Z,22.30
2023-04-16T09:16:15.310Z,26.30
2023-04-16T09:18:42.675Z,22.90
2023-04-16T09:21:13.586Z,25.20
2023-04-16T09:23:41.195Z,22.75
2023-04-16T09:26:08.394Z,21.65
2023-04-16T09:28:45.704Z,21.67
2023-04-16T09:31:17.876Z,21.58
2023-04-16T09:34:07.609Z,21.38
2023-04-16T09:36:35.812Z,21.80
2023-04-16T09:39:03.869Z,22.05
2023-04-16T09:41:33.022Z,19.77
2023-04-16T09:44:02.283Z,19.92
2023-04-16T09:46:35.169Z,18.73
2023-04-16T09:49:10.232Z,19.00
2023-04-16T09:51:38.625Z,18.23
2023-04-16T09:54:06.518Z,16.98
2023-04-16T09:56:33.658Z,16.92
2023-04-16T09:59:01.089Z,19.80
2023-04-16T10:01:29.220Z,17.45
2023-04-16T10:03:56.525Z,17.63
2023-04-16T10:06:26.858Z,15.98
2023-04-16T10:08:57.464Z,17.45
2023-04-16T10:11:24.973Z,16.90
2023-04-16T11:03:35.749Z,23.77
2023-04-16T11:06:23.786Z,24.08
2023-04-16T11:09:08.671Z,25.23
2023-04-16T11:14:08.302Z,28.42
2023-04-16T11:16:35.457Z,27.00
2023-04-16T11:19:02.867Z,21.33
2023-04-16T11:21:30.070Z,23.52
2023-04-16T11:23:58.073Z,23.35
2023-04-16T11:26:27.345Z,20.45
2023-04-16T11:28:56.245Z,25.42
2023-04-16T11:31:24.189Z,19.63
2023-04-16T11:33:51.305Z,19.48
2023-04-16T11:36:18.694Z,21.83
2023-04-16T11:38:45.861Z,22.70
2023-04-16T11:41:19.734Z,19.15
2023-04-16T11:43:46.600Z,18.38
2023-04-16T11:46:26.330Z,19.05
2023-04-16T11:48:58.708Z,17.13
2023-04-16T11:51:25.601Z,17.58
2023-04-16T11:53:53.740Z,17.63
2023-04-16T11:56:30.843Z,18.15
2023-04-16T11:59:17.882Z,16.08
2023-04-16T12:01:50.319Z,13.77
2023-04-16T12:04:21.243Z,14.73
2023-04-16T12:07:07.966Z,15.98
2023-04-16T12:09:37.928Z,16.05
2023-04-16T12:12:24.956Z,14.90
2023-04-16T12:14:52.280Z,16.40
2023-04-16T12:17:23.111Z,16.90
2023-04-16T12:19:57.002Z,16.55
2023-04-16T12:22:31.631Z,15.80
2023-04-16T12:25:00.076Z,13.68
2023-04-16T12:27:40.576Z,12.57
2023-04-16T12:30:08.085Z,14.10
2023-04-16T12:32:35.473Z,12.65
2023-04-16T12:35:02.580Z,12.40
2023-04-16T12:37:29.465Z,13.15
2023-04-16T12:39:56.490Z,11.73
2023-04-16T12:42:23.383Z,12.18
2023-04-16T12:44:50.250Z,11.52
2023-04-16T12:47:17.248Z,13.15
2023-04-16T12:49:44.939Z,12.23
2023-04-16T12:52:12.069Z,11.48
2023-04-16T12:54:39.543Z,10.23
2023-04-16T12:57:06.614Z,10.82
2023-04-16T12:59:33.628Z,10.27
2023-04-16T13:02:02.090Z,11.05
2023-04-16T13:04:29.471Z,9.75
2023-04-16T13:06:56.943Z,8.73
2023-04-16T13:09:23.950Z,8.73
2023-04-16T13:11:51.033Z,12.02
2023-04-16T13:14:18.118Z,9.75
2023-04-16T13:16:45.074Z,11.40
2023-04-16T13:19:12.247Z,9.30
2023-04-16T13:21:39.515Z,9.45
2023-04-16T13:24:06.723Z,10.80
2023-04-16T13:26:33.794Z,12.07
2023-04-16T13:29:00.945Z,11.95
2023-04-16T13:31:28.044Z,15.98
2023-04-16T13:33:55.606Z,11.95
2023-04-16T13:36:22.778Z,8.75
2023-04-16T13:38:49.922Z,9.07
2023-04-16T13:41:16.955Z,8.52
2023-04-16T13:43:43.960Z,5.63
2023-04-16T13:46:11.554Z,9.43
2023-04-16T13:48:38.979Z,8.23
2023-04-16T13:51:06.119Z,5.65
2023-04-16T13:53:33.177Z,4.95
2023-04-16T13:56:00.534Z,4.68
2023-04-16T13:58:27.384Z,4.60
2023-04-16T14:00:54.531Z,5.15
2023-04-16T14:03:21.800Z,7.82
2023-04-16T14:05:48.866Z,7.43
2023-04-16T14:08:16.993Z,5.53
2023-04-16T14:10:44.030Z,20.00
2023-04-16T14:13:12.301Z,6.45
2023-04-16T14:15:39.204Z,11.15
2023-04-16T14:18:06.262Z,7.90
2023-04-16T14:20:33.325Z,6.88
2023-04-16T14:23:00.269Z,7.35
2023-04-16T14:25:27.282Z,4.50
2023-04-16T14:27:54.425Z,7.50
2023-04-16T14:30:21.325Z,5.40
2023-04-16T14:32:48.244Z,8.48
2023-04-16T14:35:15.388Z,4.22
2023-04-16T14:37:42.529Z,5.25
2023-04-16T14:40:09.956Z,4.82
2023-04-16T14:42:37.850Z,4.35
2023-04-16T14:45:08.586Z,4.28
2023-04-16T14:47:36.858Z,4.53
2023-04-16T14:50:05.267Z,5.63
2023-04-16T14:52:33.416Z,4.57
2023-04-16T14:55:00.775Z,5.00
2023-04-16T14:57:27.690Z,4.75
2023-04-16T14:59:54.603Z,5.82
2023-04-16T15:02:21.843Z,4.65
2023-04-16T15:04:49.121Z,5.45
2023-04-16T15:07:16.548Z,7.10
2023-04-16T15:09:43.911Z,5.43
2023-04-16T15:12:10.928Z,6.00
2023-04-16T15:14:37.846Z,5.70
2023-04-16T15:17:05.134Z,4.72
2023-04-16T15:19:32.227Z,5.07
2023-04-16T15:21:59.467Z,9.88
2023-04-16T15:24:26.516Z,5.70
2023-04-16T15:26:53.496Z,7.50
2023-04-16T15:29:20.785Z,9.93
2023-04-16T15:31:48.231Z,10.30
2023-04-16T15:34:15.218Z,12.10
2023-04-16T15:36:42.413Z,17.48
2023-04-16T15:39:10.703Z,10.90
2023-04-16T15:41:53.373Z,7.70
2023-04-16T15:44:26.586Z,9.57
2023-04-16T15:46:53.554Z,9.55
2023-04-16T15:49:20.528Z,12.18
2023-04-16T15:51:47.537Z,10.23
2023-04-16T15:54:14.549Z,9.00
2023-04-16T15:56:41.606Z,8.95
2023-04-16T15:59:08.843Z,9.35
2023-04-16T16:01:36.354Z,10.63
2023-04-16T16:04:03.668Z,10.40
2023-04-16T16:06:31.654Z,11.95
2023-04-16T16:08:59.233Z,10.68
2023-04-16T16:11:27.354Z,12.80
2023-04-16T16:13:54.891Z,11.90
2023-04-16T16:16:22.110Z,11.98
2023-04-16T16:18:49.091Z,12.65
2023-04-16T16:21:16.198Z,14.60
2023-04-16T16:23:43.150Z,13.00
2023-04-16T16:26:10.148Z,13.80
2023-04-16T16:28:38.156Z,13.98
2023-04-16T16:31:07.166Z,13.32
2023-04-16T16:33:34.402Z,11.10
2023-04-16T16:36:01.785Z,13.88
2023-04-16T16:38:28.955Z,10.85
2023-04-16T16:40:56.091Z,13.32
2023-04-16T16:43:23.251Z,12.57
2023-04-16T16:45:50.172Z,16.23
2023-04-16T16:48:17.242Z,18.83
2023-04-16T16:50:44.547Z,17.88
2023-04-16T16:53:11.715Z,18.73
2023-04-16T16:55:38.937Z,14.25
2023-04-16T16:58:06.254Z,10.60
2023-04-16T17:00:33.352Z,11.10
2023-04-16T17:03:00.476Z,12.25
2023-04-16T17:05:27.932Z,12.07
2023-04-16T17:07:57.059Z,15.52
2023-04-16T17:10:25.236Z,21.67
2023-04-16T17:12:52.566Z,35.55
2023-04-16T17:15:21.812Z,19.75
2023-04-16T17:17:49.304Z,14.88
2023-04-16T17:20:16.318Z,11.23
2023-04-16T17:22:43.443Z,11.10
2023-04-16T17:25:11.032Z,10.35
2023-04-16T17:27:38.200Z,11.75
2023-04-16T17:30:06.056Z,10.80
2023-04-16T17:32:33.366Z,13.15
2023-04-16T17:35:01.751Z,12.93
2023-04-16T17:37:28.890Z,13.32
2023-04-16T17:39:56.191Z,13.13
2023-04-16T17:42:24.587Z,13.63
2023-04-16T17:44:51.945Z,14.40
2023-04-16T17:47:19.193Z,15.23
2023-04-16T17:49:46.339Z,15.77
2023-04-16T17:52:13.354Z,16.30
2023-04-16T17:54:40.372Z,15.27
2023-04-16T17:57:07.317Z,16.98
2023-04-16T17:59:34.644Z,16.98
2023-04-16T18:02:01.871Z,18.60
2023-04-16T18:04:29.213Z,16.65
2023-04-16T18:06:56.424Z,19.30
2023-04-16T18:09:23.444Z,18.17
2023-04-16T18:11:50.513Z,19.52
2023-04-16T18:14:20.124Z,18.15
2023-04-16T18:16:50.452Z,21.20
2023-04-16T18:19:17.487Z,19.58
2023-04-16T18:21:45.116Z,19.05
2023-04-16T18:24:12.836Z,22.35
2023-04-16T18:26:40.974Z,20.08
2023-04-16T18:29:09.131Z,22.02
2023-04-16T18:31:36.285Z,21.95
2023-04-16T18:34:03.385Z,22.65
2023-04-16T18:36:31.182Z,25.63
2023-04-16T18:39:02.056Z,24.38
2023-04-16T18:41:30.008Z,25.73
2023-04-16T18:43:57.373Z,24.50
2023-04-16T18:46:25.325Z,17.88
2023-04-16T18:48:52.580Z,21.05
2023-04-16T18:51:19.624Z,20.55
2023-04-16T18:53:46.726Z,23.70
2023-04-16T18:56:13.819Z,24.67
2023-04-16T18:58:40.683Z,25.85
2023-04-16T19:01:11.320Z,26.80
2023-04-16T19:03:38.987Z,28.20
2023-04-16T19:06:06.711Z,26.50
2023-04-16T19:08:33.784Z,25.13
2023-04-16T19:11:00.826Z,24.58
2023-04-16T19:13:30.275Z,28.65
2023-04-16T19:16:01.641Z,27.88
2023-04-16T19:18:28.938Z,28.40
2023-04-16T19:21:00.593Z,29.83
2023-04-16T19:23:28.118Z,27.58
2023-04-16T19:25:58.646Z,28.38
2023-04-16T19:28:25.908Z,31.30
2023-04-16T19:30:53.762Z,30.20
2023-04-16T19:33:20.978Z,29.48
2023-04-16T19:35:47.997Z,30.42
2023-04-16T19:38:15.052Z,29.73
2023-04-16T19:40:46.762Z,28.55
2023-04-16T19:43:14.398Z,29.25
2023-04-16T19:45:52.435Z,25.52
2023-04-16T19:48:22.582Z,25.98
2023-04-16T19:50:49.658Z,25.33
2023-04-16T19:53:17.342Z,26.02
2023-04-16T19:55:44.783Z,27.33
2023-04-16T19:58:11.834Z,25.63
2023-04-16T20:00:41.226Z,25.55
2023-04-16T20:03:08.461Z,26.50
2023-04-16T20:05:35.690Z,23.13
2023-04-16T20:08:02.745Z,24.33
2023-04-16T20:10:31.268Z,25.17
2023-04-16T20:12:58.504Z,24.17
2023-04-16T20:15:25.978Z,28.23
2023-04-16T20:17:53.440Z,24.75
2023-04-16T20:20:22.674Z,24.98
2023-04-16T20:22:49.898Z,22.70
2023-04-16T20:25:19.369Z,23.13
2023-04-16T20:27:46.652Z,25.42
2023-04-16T20:30:14.218Z,23.52
2023-04-16T20:32:41.321Z,21.10
2023-04-16T20:35:10.939Z,22.33
2023-04-16T20:37:42.295Z,24.83
2023-04-16T20:40:10.852Z,23.80
2023-04-16T20:42:38.103Z,23.92
2023-04-16T20:45:05.720Z,22.60
2023-04-16T20:47:34.876Z,22.27
2023-04-16T20:50:02.710Z,24.17
2023-04-16T20:52:29.742Z,24.65
2023-04-16T20:54:56.610Z,21.85
2023-04-16T20:57:23.528Z,24.65
2023-04-16T20:59:50.679Z,23.73
2023-04-16T21:02:17.840Z,20.73
2023-04-16T21:04:45.134Z,23.80
2023-04-16T21:07:12.231Z,23.17
2023-04-16T21:09:39.190Z,22.70
2023-04-16T21:12:07.562Z,23.45
2023-04-16T21:14:34.801Z,21.77
2023-04-16T21:17:01.884Z,22.88
2023-04-16T21:19:28.805Z,26.77
2023-04-16T21:21:56.125Z,20.88
2023-04-16T21:24:23.461Z,20.50
2023-04-16T21:26:50.776Z,22.63
2023-04-16T21:29:17.912Z,23.17
2023-04-16T21:31:44.977Z,23.73
2023-04-16T21:34:12.090Z,23.10
2023-04-16T21:36:38.960Z,22.02
2023-04-16T21:39:06.021Z,23.83
2023-04-16T21:41:33.132Z,23.58
2023-04-16T21:44:00.332Z,26.55
2023-04-16T21:46:27.720Z,23.92
2023-04-16T21:48:55.017Z,25.05
2023-04-16T21:51:29.097Z,24.73
2023-04-16T21:53:57.081Z,22.85
2023-04-16T21:56:25.106Z,23.60
2023-04-16T21:58:52.382Z,22.42
2023-04-16T22:01:19.603Z,27.17
2023-04-16T22:03:50.875Z,24.33
2023-04-16T22:06:18.379Z,24.95
2023-04-16T22:08:45.358Z,25.20
2023-04-16T22:11:12.603Z,23.77
2023-04-16T22:13:42.133Z,27.30
2023-04-16T22:16:11.577Z,24.83
2023-04-16T22:18:38.865Z,28.67
2023-04-16T22:21:05.957Z,26.48
2023-04-16T22:23:32.953Z,25.35
2023-04-16T22:25:59.881Z,28.50
2023-04-16T22:28:27.261Z,23.98
2023-04-16T22:30:54.232Z,23.80
2023-04-16T22:33:21.730Z,22.73
2023-04-16T22:35:48.689Z,25.17
2023-04-16T22:38:16.503Z,24.08
2023-04-16T22:40:43.434Z,23.27
2023-04-16T22:43:10.469Z,23.42
2023-04-16T22:45:37.590Z,23.85
2023-04-16T22:48:04.728Z,22.42
2023-04-16T22:50:32.027Z,24.02
2023-04-16T22:52:59.252Z,22.80
2023-04-16T22:55:26.419Z,22.75
2023-04-16T22:57:53.334Z,23.38
2023-04-16T23:00:21.200Z,22.17
2023-04-16T23:02:48.304Z,22.67
2023-04-16T23:05:15.798Z,22.95
2023-04-16T23:07:42.798Z,23.42
2023-04-16T23:10:09.915Z,23.92
2023-04-16T23:12:40.152Z,23.10
2023-04-16T23:15:07.638Z,21.95
2023-04-16T23:17:35.287Z,23.92
2023-04-16T23:20:05.421Z,23.27
2023-04-16T23:22:32.469Z,20.92
2023-04-16T23:24:59.481Z,24.25
2023-04-16T23:27:26.410Z,22.90
2023-04-16T23:29:53.501Z,24.30
2023-04-16T23:32:20.526Z,23.45
2023-04-16T23:34:47.473Z,23.00
2023-04-16T23:37:14.488Z,24.45
2023-04-16T23:39:41.425Z,20.73
2023-04-16T23:42:08.694Z,20.83
2023-04-16T23:44:35.799Z,24.33
2023-04-16T23:47:02.790Z,21.40
2023-04-16T23:49:29.673Z,21.63
2023-04-16T23:51:56.563Z,22.42
2023-04-16T23:54:23.466Z,23.25
2023-04-16T23:56:50.489Z,21.80
2023-04-16T23:59:17.853Z,20.88
